Portada
METAR-TAF:

METAR-TAF

Aeropuertos :

Mount Carmel Municipal Airport

Mount Carmel, Illinois, Estados Unidos

latitud: 38-36-23N, longitud: 087-43-36W, altitud: 131 m

Observación

El informe se hizo hace 34 minutos, a las 14:55 UTC
Viento 5 kt del suroeste
Temperatura 30°C
Humedad 59%
Presión 1027 hPa
Visibilidad: 16.1 km
Cielo despejado

METAR: KAJG 201455Z AUTO 22005KT 10SM CLR 30/21 A3032 RMK AO2 T02970208

Hora: 10:29 (15:29 UTC)


TAF: falta

Observaciones y pronósticos meteorológicos de más de 4000 aeropuertos (mensajes METAR y TAF).

Los puntos amarillos y rojos representan las estaciones disponibles.

Ponga el ratón en el punto deseado para ver el nombre de la estación.

Haga clic para ver las observaciones y los pronósticos meteorológicos.

Para cambiar el mapa : haga clic en los botones verdes con una cruz de color negro para hacer un zoom, en el botón verde con un guión para alejar o en las flechas verdes para mapas adyacentes.


METAR-TAF: